| time (UTC) | temp F | wind direction | speed MPH | gust MPH | rain 1hr in | rain 24hr in | rain mn in | humidity % | barometer mb |
| 20260504174340 | 73 | 241 | 6.0 | 18.0 | 0.00 | 0.00 | 0.00 | 44 | 1000.1 |
| 20260504174234 | 73 | 244 | 6.0 | 18.0 | 0.00 | 0.00 | 0.00 | 43 | 1000.2 |
| 20260504174127 | 73 | 271 | 6.0 | 14.0 | 0.00 | 0.00 | 0.00 | 43 | 1000.1 |
| 20260504174023 | 73 | 0 | 6.0 | 14.0 | 0.00 | 0.00 | 0.00 | 45 | 1000.2 |
| 20260504173917 | 73 | 249 | 6.0 | 14.0 | 0.00 | 0.00 | 0.00 | 46 | 1000.3 |
| 20260504173811 | 73 | 218 | 6.0 | 14.0 | 0.00 | 0.00 | 0.00 | 47 | 1000.3 |
| 20260504173704 | 73 | 245 | 6.0 | 14.0 | 0.00 | 0.00 | 0.00 | 44 | 1000.3 |
| 20260504173559 | 73 | 178 | 6.0 | 14.0 | 0.00 | 0.00 | 0.00 | 43 | 1000.3 |
| 20260504173453 | 73 | 181 | 5.0 | 14.0 | 0.00 | 0.00 | 0.00 | 43 | 1000.4 |
| 20260504173346 | 73 | 236 | 5.0 | 14.0 | 0.00 | 0.00 | 0.00 | 44 | 1000.4 |
| 20260504173019 | 73 | 284 | 4.0 | 14.0 | 0.00 | 0.00 | 0.00 | 44 | 1000.4 |
| 20260504172913 | 73 | 210 | 4.0 | 14.0 | 0.00 | 0.00 | 0.00 | 47 | 1000.3 |
| 20260504172808 | 73 | 215 | 4.0 | 14.0 | 0.00 | 0.00 | 0.00 | 45 | 1000.4 |
| 20260504172441 | 72 | 238 | 5.0 | 14.0 | 0.00 | 0.00 | 0.00 | 46 | 1000.4 |
| 20260504172337 | 72 | 222 | 5.0 | 14.0 | 0.00 | 0.00 | 0.00 | 46 | 1000.5 |
| 20260504172233 | 72 | 238 | 5.0 | 14.0 | 0.00 | 0.00 | 0.00 | 48 | 1000.4 |
| 20260504172126 | 72 | 220 | 6.0 | 14.0 | 0.00 | 0.00 | 0.00 | 46 | 1000.5 |
| 20260504171759 | 72 | 185 | 5.0 | 14.0 | 0.00 | 0.00 | 0.00 | 47 | 1000.6 |
| 20260504171656 | 72 | 164 | 5.0 | 14.0 | 0.00 | 0.00 | 0.00 | 46 | 1000.6 |
| 20260504171549 | 72 | 197 | 5.0 | 13.0 | 0.00 | 0.00 | 0.00 | 46 | 1000.6 |
| 20260504171228 | 72 | 185 | 3.0 | 13.0 | 0.00 | 0.00 | 0.00 | 45 | 1000.5 |
| 20260504171125 | 72 | 0 | 3.0 | 13.0 | 0.00 | 0.00 | 0.00 | 47 | 1000.5 |
| 20260504171020 | 72 | 188 | 4.0 | 13.0 | 0.00 | 0.00 | 0.00 | 48 | 1000.6 |
| 20260504170914 | 72 | 165 | 4.0 | 13.0 | 0.00 | 0.00 | 0.00 | 47 | 1000.6 |
| 20260504170550 | 72 | 190 | 3.0 | 13.0 | 0.00 | 0.00 | 0.00 | 50 | 1000.8 |
| 20260504170445 | 72 | 204 | 4.0 | 13.0 | 0.00 | 0.00 | 0.00 | 51 | 1000.8 |
| 20260504170338 | 72 | 271 | 4.0 | 13.0 | 0.00 | 0.00 | 0.00 | 49 | 1000.8 |
| 20260504170234 | 72 | 236 | 4.0 | 13.0 | 0.00 | 0.00 | 0.00 | 49 | 1000.9 |
| 20260504170126 | 72 | 226 | 4.0 | 13.0 | 0.00 | 0.00 | 0.00 | 49 | 1000.9 |
| 20260504160342 | 70 | 153 | 4.0 | 13.0 | 0.00 | 0.00 | 0.00 | 51 | 1001.6 |
| 20260504151108 | 67 | 221 | 2.0 | 12.0 | 0.00 | 0.00 | 0.00 | 59 | 1002.1 |
| 20260504150526 | 67 | 0 | 4.0 | 12.0 | 0.00 | 0.00 | 0.00 | 56 | 1002.2 |
| 20260504150421 | 67 | 234 | 3.0 | 9.0 | 0.00 | 0.00 | 0.00 | 59 | 1002.3 |
| 20260504150316 | 67 | 180 | 3.0 | 9.0 | 0.00 | 0.00 | 0.00 | 58 | 1002.1 |
| 20260504150213 | 66 | 214 | 3.0 | 8.0 | 0.00 | 0.00 | 0.00 | 58 | 1002.2 |
| 20260504150110 | 66 | 262 | 3.0 | 8.0 | 0.00 | 0.00 | 0.00 | 57 | 1002.2 |
| 20260504120309 | 52 | 182 | 0.0 | 8.0 | 0.00 | 0.00 | 0.00 | 74 | 1003.4 |
| 20260504120207 | 52 | 184 | 0.0 | 8.0 | 0.00 | 0.00 | 0.00 | 74 | 1003.4 |
| 20260504120105 | 52 | 194 | 1.0 | 8.0 | 0.00 | 0.00 | 0.00 | 74 | 1003.4 |
| 20260504110637 | 49 | 170 | 0.0 | 0.0 | 0.00 | 0.00 | 0.00 | 77 | 1003.3 |
| 20260504110530 | 49 | 170 | 0.0 | 0.0 | 0.00 | 0.00 | 0.00 | 77 | 1003.3 |
| 20260504110425 | 49 | 192 | 0.0 | 0.0 | 0.00 | 0.00 | 0.00 | 77 | 1003.2 |
| 20260504110320 | 49 | 192 | 0.0 | 0.0 | 0.00 | 0.00 | 0.00 | 77 | 1003.3 |
| 20260504110217 | 49 | 192 | 0.0 | 0.0 | 0.00 | 0.00 | 0.00 | 77 | 1003.3 |
| 20260504110113 | 49 | 198 | 0.0 | 3.0 | 0.00 | 0.00 | 0.00 | 77 | 1003.3 |
| 20260504100608 | 49 | 208 | 0.0 | 0.0 | 0.00 | 0.00 | 0.00 | 76 | 1003.0 |
| 20260504100506 | 49 | 200 | 0.0 | 0.0 | 0.00 | 0.00 | 0.00 | 76 | 1003.1 |
| 20260504100405 | 49 | 204 | 0.0 | 5.0 | 0.00 | 0.00 | 0.00 | 76 | 1003.1 |
| 20260504100301 | 49 | 219 | 0.0 | 5.0 | 0.00 | 0.00 | 0.00 | 76 | 1003.1 |
| 20260504100159 | 49 | 214 | 0.0 | 5.0 | 0.00 | 0.00 | 0.00 | 76 | 1003.1 |
| 20260504082003 | 50 | 190 | 1.0 | 6.0 | 0.00 | 0.00 | 0.00 | 75 | 1003.7 |
| 20260504081859 | 50 | 209 | 1.0 | 6.0 | 0.00 | 0.00 | 0.00 | 74 | 1003.7 |
| 20260504081754 | 50 | 199 | 1.0 | 6.0 | 0.00 | 0.00 | 0.00 | 74 | 1003.7 |
| 20260504081649 | 50 | 178 | 1.0 | 6.0 | 0.00 | 0.00 | 0.00 | 74 | 1003.8 |
| 20260504081545 | 50 | 200 | 1.0 | 6.0 | 0.00 | 0.00 | 0.00 | 74 | 1003.8 |
| 20260504081438 | 50 | 189 | 1.0 | 6.0 | 0.00 | 0.00 | 0.00 | 74 | 1003.8 |
| 20260504081334 | 50 | 183 | 1.0 | 6.0 | 0.00 | 0.00 | 0.00 | 74 | 1003.8 |
| 20260504081231 | 50 | 248 | 1.0 | 6.0 | 0.00 | 0.00 | 0.00 | 74 | 1003.8 |
| 20260504081129 | 50 | 172 | 2.0 | 6.0 | 0.00 | 0.00 | 0.00 | 74 | 1003.8 |
| 20260504081024 | 50 | 169 | 1.0 | 6.0 | 0.00 | 0.00 | 0.00 | 74 | 1003.8 |
| 20260504080920 | 50 | 213 | 1.0 | 6.0 | 0.00 | 0.00 | 0.00 | 74 | 1003.9 |
| 20260504080814 | 50 | 186 | 1.0 | 6.0 | 0.00 | 0.00 | 0.00 | 74 | 1003.8 |
| 20260504080706 | 50 | 180 | 1.0 | 6.0 | 0.00 | 0.00 | 0.00 | 74 | 1003.8 |
| 20260504080558 | 50 | 187 | 1.0 | 6.0 | 0.00 | 0.00 | 0.00 | 74 | 1003.8 |
| 20260504080232 | 50 | 178 | 0.0 | 6.0 | 0.00 | 0.00 | 0.00 | 74 | 1003.8 |
| 20260504080126 | 50 | 206 | 0.0 | 6.0 | 0.00 | 0.00 | 0.00 | 74 | 1003.8 |
| 20260504070209 | 50 | 173 | 2.0 | 9.0 | 0.00 | 0.00 | 0.00 | 74 | 1004.6 |
| 20260504070104 | 50 | 208 | 2.0 | 9.0 | 0.00 | 0.00 | 0.00 | 74 | 1004.6 |
| 20260504060206 | 50 | 185 | 4.0 | 11.0 | 0.00 | 0.00 | 0.00 | 73 | 1005.3 |
| 20260504050437 | 51 | 184 | 4.0 | 10.0 | 0.00 | 0.00 | 0.00 | 71 | 1006.1 |
| 20260504050331 | 51 | 157 | 4.0 | 10.0 | 0.00 | 0.00 | 0.00 | 71 | 1006.0 |
| 20260504050224 | 51 | 214 | 4.0 | 10.0 | 0.00 | 0.00 | 0.00 | 71 | 1006.0 |
| 20260504045639 | 51 | 198 | 4.0 | 13.0 | 0.00 | 0.00 | 0.00 | 71 | 1006.0 |
| 20260504045531 | 51 | 216 | 4.0 | 13.0 | 0.00 | 0.00 | 0.00 | 71 | 1006.0 |
| 20260504045425 | 51 | 195 | 4.0 | 13.0 | 0.00 | 0.00 | 0.00 | 71 | 1006.1 |
| 20260504045058 | 51 | 176 | 4.0 | 13.0 | 0.00 | 0.00 | 0.00 | 71 | 1006.0 |
| 20260504044951 | 51 | 249 | 4.0 | 13.0 | 0.00 | 0.00 | 0.00 | 71 | 1006.0 |
| 20260504044631 | 51 | 275 | 4.0 | 13.0 | 0.00 | 0.00 | 0.00 | 71 | 1006.1 |
| 20260504044526 | 51 | 202 | 4.0 | 13.0 | 0.00 | 0.00 | 0.00 | 71 | 1006.1 |
| 20260504044423 | 51 | 148 | 4.0 | 13.0 | 0.00 | 0.00 | 0.00 | 71 | 1006.2 |
| 20260504044317 | 51 | 184 | 4.0 | 13.0 | 0.00 | 0.00 | 0.00 | 71 | 1006.2 |
| 20260504044210 | 51 | 194 | 4.0 | 13.0 | 0.00 | 0.00 | 0.00 | 71 | 1006.1 |
| 20260504044107 | 51 | 0 | 4.0 | 13.0 | 0.00 | 0.00 | 0.00 | 71 | 1006.1 |
| 20260504044003 | 51 | 196 | 4.0 | 13.0 | 0.00 | 0.00 | 0.00 | 71 | 1006.2 |
| 20260504043856 | 51 | 196 | 4.0 | 13.0 | 0.00 | 0.00 | 0.00 | 71 | 1006.2 |
| 20260504043528 | 51 | 178 | 3.0 | 10.0 | 0.00 | 0.00 | 0.00 | 71 | 1006.2 |
| 20260504043423 | 51 | 215 | 3.0 | 10.0 | 0.00 | 0.00 | 0.00 | 71 | 1006.3 |
| 20260504043317 | 51 | 144 | 3.0 | 10.0 | 0.00 | 0.00 | 0.00 | 71 | 1006.3 |
| 20260504043213 | 51 | 200 | 3.0 | 10.0 | 0.00 | 0.00 | 0.00 | 71 | 1006.3 |
| 20260504043111 | 51 | 185 | 2.0 | 10.0 | 0.00 | 0.00 | 0.00 | 71 | 1006.3 |
| 20260504043005 | 51 | 233 | 2.0 | 10.0 | 0.00 | 0.00 | 0.00 | 71 | 1006.3 |
| 20260504042858 | 51 | 175 | 3.0 | 10.0 | 0.00 | 0.00 | 0.00 | 71 | 1006.4 |
| 20260504042751 | 51 | 199 | 3.0 | 10.0 | 0.00 | 0.00 | 0.00 | 71 | 1006.4 |
| 20260504042427 | 51 | 187 | 2.0 | 9.0 | 0.00 | 0.00 | 0.00 | 71 | 1006.4 |
| 20260504042102 | 51 | 180 | 3.0 | 9.0 | 0.00 | 0.00 | 0.00 | 71 | 1006.4 |
| 20260504042000 | 51 | 228 | 3.0 | 9.0 | 0.00 | 0.00 | 0.00 | 71 | 1006.4 |
| 20260504041854 | 51 | 159 | 2.0 | 9.0 | 0.00 | 0.00 | 0.00 | 71 | 1006.4 |
| 20260504041747 | 51 | 180 | 3.0 | 8.0 | 0.00 | 0.00 | 0.00 | 71 | 1006.4 |
| 20260504041642 | 51 | 235 | 3.0 | 8.0 | 0.00 | 0.00 | 0.00 | 71 | 1006.4 |
| 20260504041540 | 51 | 159 | 3.0 | 8.0 | 0.00 | 0.00 | 0.00 | 71 | 1006.4 |
| 20260504041436 | 51 | 188 | 3.0 | 8.0 | 0.00 | 0.00 | 0.00 | 71 | 1006.4 |
| 20260504041329 | 51 | 167 | 3.0 | 8.0 | 0.00 | 0.00 | 0.00 | 71 | 1006.5 |
| 20260504041226 | 51 | 172 | 3.0 | 8.0 | 0.00 | 0.00 | 0.00 | 71 | 1006.4 |
| 20260504041121 | 51 | 216 | 3.0 | 8.0 | 0.00 | 0.00 | 0.00 | 71 | 1006.4 |
| 20260504041015 | 51 | 174 | 3.0 | 19.0 | 0.00 | 0.00 | 0.00 | 71 | 1006.5 |
| 20260504040910 | 51 | 192 | 4.0 | 19.0 | 0.00 | 0.00 | 0.00 | 70 | 1006.5 |
| 20260504040806 | 51 | 180 | 4.0 | 19.0 | 0.00 | 0.00 | 0.00 | 70 | 1006.5 |
| 20260504040702 | 51 | 175 | 4.0 | 19.0 | 0.00 | 0.00 | 0.00 | 70 | 1006.5 |
| 20260504040335 | 51 | 175 | 4.0 | 19.0 | 0.00 | 0.00 | 0.00 | 70 | 1006.6 |
| 20260504040230 | 51 | 146 | 4.0 | 19.0 | 0.00 | 0.00 | 0.00 | 70 | 1006.6 |
| 20260504040126 | 51 | 193 | 4.0 | 19.0 | 0.00 | 0.00 | 0.00 | 70 | 1006.6 |
| 20260504040021 | 51 | 188 | 4.0 | 19.0 | 0.00 | 0.00 | 0.00 | 70 | 1006.6 |
| 20260504035914 | 51 | 180 | 4.0 | 19.0 | 0.00 | 0.00 | 0.00 | 70 | 1006.6 |
| 20260504035546 | 51 | 209 | 4.0 | 19.0 | 0.00 | 0.00 | 0.00 | 70 | 1006.6 |
| 20260504035444 | 51 | 233 | 4.0 | 19.0 | 0.00 | 0.00 | 0.00 | 70 | 1006.6 |
| 20260504035340 | 51 | 207 | 4.0 | 19.0 | 0.00 | 0.00 | 0.00 | 70 | 1006.6 |
| 20260504035234 | 51 | 155 | 5.0 | 19.0 | 0.00 | 0.00 | 0.00 | 70 | 1006.7 |
| 20260504035127 | 51 | 218 | 5.0 | 19.0 | 0.00 | 0.00 | 0.00 | 70 | 1006.6 |
| 20260504035021 | 51 | 229 | 4.0 | 16.0 | 0.00 | 0.00 | 0.00 | 70 | 1006.7 |
| 20260504034655 | 51 | 201 | 4.0 | 11.0 | 0.00 | 0.00 | 0.00 | 70 | 1006.9 |
| 20260504034553 | 51 | 185 | 4.0 | 11.0 | 0.00 | 0.00 | 0.00 | 70 | 1006.8 |
| 20260504034447 | 51 | 213 | 4.0 | 11.0 | 0.00 | 0.00 | 0.00 | 70 | 1006.7 |
| 20260504033858 | 51 | 198 | 3.0 | 8.0 | 0.00 | 0.00 | 0.00 | 70 | 1006.8 |
| 20260504033755 | 51 | 207 | 3.0 | 8.0 | 0.00 | 0.00 | 0.00 | 70 | 1006.7 |
| 20260504033653 | 51 | 177 | 3.0 | 8.0 | 0.00 | 0.00 | 0.00 | 70 | 1006.9 |
| 20260504033546 | 51 | 171 | 3.0 | 10.0 | 0.00 | 0.00 | 0.00 | 70 | 1006.9 |
| 20260504033441 | 51 | 178 | 3.0 | 10.0 | 0.00 | 0.00 | 0.00 | 70 | 1006.9 |
| 20260504033120 | 51 | 182 | 3.0 | 10.0 | 0.00 | 0.00 | 0.00 | 70 | 1007.0 |
| 20260504033017 | 51 | 184 | 3.0 | 10.0 | 0.00 | 0.00 | 0.00 | 70 | 1007.0 |
| 20260504032652 | 51 | 195 | 4.0 | 10.0 | 0.00 | 0.00 | 0.00 | 70 | 1007.0 |
| 20260504032548 | 51 | 167 | 4.0 | 12.0 | 0.00 | 0.00 | 0.00 | 70 | 1007.0 |
| 20260504032443 | 51 | 262 | 4.0 | 12.0 | 0.00 | 0.00 | 0.00 | 70 | 1007.0 |
| 20260504032335 | 51 | 158 | 4.0 | 12.0 | 0.00 | 0.00 | 0.00 | 70 | 1006.9 |
| 20260504032228 | 51 | 190 | 4.0 | 12.0 | 0.00 | 0.00 | 0.00 | 70 | 1007.0 |
| 20260504032125 | 51 | 219 | 4.0 | 12.0 | 0.00 | 0.00 | 0.00 | 70 | 1007.0 |
| 20260504031542 | 51 | 180 | 3.0 | 12.0 | 0.00 | 0.00 | 0.00 | 71 | 1007.1 |
| 20260504031437 | 51 | 194 | 3.0 | 12.0 | 0.00 | 0.00 | 0.00 | 71 | 1007.0 |
| 20260504031333 | 51 | 171 | 3.0 | 12.0 | 0.00 | 0.00 | 0.00 | 71 | 1007.1 |
| 20260504031230 | 51 | 141 | 3.0 | 12.0 | 0.00 | 0.00 | 0.00 | 71 | 1007.1 |
| 20260504031127 | 51 | 160 | 2.0 | 12.0 | 0.00 | 0.00 | 0.00 | 71 | 1007.1 |
| 20260504031024 | 51 | 188 | 3.0 | 12.0 | 0.00 | 0.00 | 0.00 | 71 | 1007.1 |
| 20260504030918 | 51 | 190 | 3.0 | 12.0 | 0.00 | 0.00 | 0.00 | 71 | 1007.1 |
| 20260504030111 | 50 | 217 | 3.0 | 10.0 | 0.00 | 0.00 | 0.00 | 71 | 1007.2 |
| 20260504030007 | 50 | 189 | 3.0 | 10.0 | 0.00 | 0.00 | 0.00 | 71 | 1007.3 |
| 20260504025901 | 50 | 182 | 2.0 | 10.0 | 0.00 | 0.00 | 0.00 | 72 | 1007.3 |
| 20260504025758 | 50 | 199 | 2.0 | 10.0 | 0.00 | 0.00 | 0.00 | 72 | 1007.3 |
| 20260504025654 | 50 | 194 | 2.0 | 10.0 | 0.00 | 0.00 | 0.00 | 72 | 1007.2 |
| 20260504025548 | 50 | 204 | 2.0 | 10.0 | 0.00 | 0.00 | 0.00 | 72 | 1007.2 |
| 20260504025442 | 50 | 141 | 2.0 | 9.0 | 0.00 | 0.00 | 0.00 | 72 | 1007.2 |
| 20260504025339 | 50 | 213 | 2.0 | 9.0 | 0.00 | 0.00 | 0.00 | 72 | 1007.3 |
| 20260504025236 | 50 | 183 | 2.0 | 9.0 | 0.00 | 0.00 | 0.00 | 72 | 1007.3 |
| 20260504025128 | 50 | 198 | 2.0 | 9.0 | 0.00 | 0.00 | 0.00 | 72 | 1007.3 |
| 20260504025021 | 50 | 218 | 2.0 | 9.0 | 0.00 | 0.00 | 0.00 | 72 | 1007.3 |
| 20260504024655 | 50 | 248 | 2.0 | 15.0 | 0.00 | 0.00 | 0.00 | 72 | 1007.4 |
| 20260504024548 | 50 | 168 | 3.0 | 15.0 | 0.00 | 0.00 | 0.00 | 72 | 1007.3 |
| 20260504024441 | 50 | 213 | 3.0 | 15.0 | 0.00 | 0.00 | 0.00 | 72 | 1007.4 |
| 20260504024117 | 50 | 213 | 2.0 | 15.0 | 0.00 | 0.00 | 0.00 | 72 | 1007.4 |
| 20260504024011 | 50 | 189 | 3.0 | 15.0 | 0.00 | 0.00 | 0.00 | 72 | 1007.4 |
| 20260504023907 | 50 | 197 | 3.0 | 15.0 | 0.00 | 0.00 | 0.00 | 72 | 1007.4 |
| 20260504023803 | 50 | 173 | 4.0 | 15.0 | 0.00 | 0.00 | 0.00 | 72 | 1007.4 |
| 20260504023438 | 50 | 257 | 3.0 | 15.0 | 0.00 | 0.00 | 0.00 | 71 | 1007.4 |
| 20260504022851 | 50 | 148 | 3.0 | 15.0 | 0.00 | 0.00 | 0.00 | 71 | 1007.3 |
| 20260504022749 | 50 | 225 | 4.0 | 9.0 | 0.00 | 0.00 | 0.00 | 71 | 1007.3 |
| 20260504022644 | 50 | 160 | 4.0 | 9.0 | 0.00 | 0.00 | 0.00 | 71 | 1007.4 |
| 20260504022541 | 50 | 213 | 4.0 | 9.0 | 0.00 | 0.00 | 0.00 | 71 | 1007.4 |
| 20260504022439 | 50 | 202 | 4.0 | 9.0 | 0.00 | 0.00 | 0.00 | 71 | 1007.4 |
| 20260504022116 | 50 | 177 | 3.0 | 8.0 | 0.00 | 0.00 | 0.00 | 72 | 1007.4 |
| 20260504022011 | 50 | 167 | 3.0 | 10.0 | 0.00 | 0.00 | 0.00 | 72 | 1007.4 |
| 20260504021906 | 50 | 174 | 3.0 | 10.0 | 0.00 | 0.00 | 0.00 | 72 | 1007.4 |
| 20260504021801 | 50 | 174 | 3.0 | 10.0 | 0.00 | 0.00 | 0.00 | 72 | 1007.4 |
| 20260504021658 | 50 | 167 | 3.0 | 10.0 | 0.00 | 0.00 | 0.00 | 72 | 1007.4 |
| 20260504021551 | 50 | 174 | 3.0 | 10.0 | 0.00 | 0.00 | 0.00 | 72 | 1007.4 |
| 20260504021448 | 50 | 188 | 3.0 | 10.0 | 0.00 | 0.00 | 0.00 | 72 | 1007.4 |
| 20260504021342 | 51 | 178 | 3.0 | 10.0 | 0.00 | 0.00 | 0.00 | 72 | 1007.4 |
| 20260504021235 | 50 | 188 | 3.0 | 10.0 | 0.00 | 0.00 | 0.00 | 72 | 1007.4 |
| 20260504021131 | 51 | 177 | 3.0 | 10.0 | 0.00 | 0.00 | 0.00 | 72 | 1007.5 |
| 20260504021029 | 51 | 201 | 4.0 | 10.0 | 0.00 | 0.00 | 0.00 | 72 | 1007.4 |
| 20260504020707 | 51 | 173 | 4.0 | 10.0 | 0.00 | 0.00 | 0.00 | 71 | 1007.4 |
| 20260504020600 | 51 | 202 | 4.0 | 10.0 | 0.00 | 0.00 | 0.00 | 71 | 1007.4 |
| 20260504020455 | 51 | 194 | 3.0 | 10.0 | 0.00 | 0.00 | 0.00 | 71 | 1007.4 |
| 20260504015910 | 51 | 196 | 3.0 | 8.0 | 0.00 | 0.00 | 0.00 | 71 | 1007.4 |
| 20260504015546 | 51 | 167 | 2.0 | 8.0 | 0.00 | 0.00 | 0.00 | 71 | 1007.4 |
| 20260504015441 | 51 | 184 | 2.0 | 8.0 | 0.00 | 0.00 | 0.00 | 71 | 1007.4 |
| 20260504015339 | 51 | 168 | 2.0 | 8.0 | 0.00 | 0.00 | 0.00 | 71 | 1007.4 |
| 20260504015014 | 51 | 180 | 1.0 | 5.0 | 0.00 | 0.00 | 0.00 | 71 | 1007.5 |
| 20260504014908 | 51 | 172 | 1.0 | 5.0 | 0.00 | 0.00 | 0.00 | 71 | 1007.5 |
| 20260504014803 | 51 | 207 | 2.0 | 5.0 | 0.00 | 0.00 | 0.00 | 71 | 1007.5 |
| 20260504014658 | 51 | 180 | 2.0 | 9.0 | 0.00 | 0.00 | 0.00 | 71 | 1007.5 |
| 20260504014556 | 51 | 181 | 3.0 | 9.0 | 0.00 | 0.00 | 0.00 | 71 | 1007.5 |
| 20260504014234 | 51 | 196 | 3.0 | 9.0 | 0.00 | 0.00 | 0.00 | 71 | 1007.5 |
| 20260504014131 | 51 | 178 | 3.0 | 9.0 | 0.00 | 0.00 | 0.00 | 71 | 1007.4 |
| 20260504013804 | 51 | 175 | 3.0 | 9.0 | 0.00 | 0.00 | 0.00 | 71 | 1007.5 |
| 20260504013659 | 51 | 182 | 3.0 | 11.0 | 0.00 | 0.00 | 0.00 | 71 | 1007.4 |
| 20260504013119 | 51 | 202 | 3.0 | 11.0 | 0.00 | 0.00 | 0.00 | 70 | 1007.4 |
| 20260504013011 | 51 | 210 | 3.0 | 11.0 | 0.00 | 0.00 | 0.00 | 70 | 1007.4 |
| 20260504012907 | 51 | 167 | 3.0 | 11.0 | 0.00 | 0.00 | 0.00 | 70 | 1007.5 |
| 20260504012320 | 51 | 169 | 3.0 | 11.0 | 0.00 | 0.00 | 0.00 | 70 | 1007.5 |
| 20260504012216 | 51 | 188 | 3.0 | 11.0 | 0.00 | 0.00 | 0.00 | 70 | 1007.4 |
| 20260504011632 | 51 | 188 | 2.0 | 9.0 | 0.00 | 0.00 | 0.00 | 70 | 1007.6 |
| 20260504011528 | 51 | 211 | 2.0 | 9.0 | 0.00 | 0.00 | 0.00 | 70 | 1007.6 |
| 20260504011424 | 52 | 188 | 2.0 | 9.0 | 0.00 | 0.00 | 0.00 | 70 | 1007.6 |
| 20260504011319 | 52 | 184 | 2.0 | 9.0 | 0.00 | 0.00 | 0.00 | 70 | 1007.6 |
| 20260504011217 | 52 | 198 | 2.0 | 9.0 | 0.00 | 0.00 | 0.00 | 70 | 1007.6 |
| 20260504011110 | 52 | 189 | 2.0 | 9.0 | 0.00 | 0.00 | 0.00 | 69 | 1007.6 |
| 20260504010748 | 52 | 184 | 3.0 | 9.0 | 0.00 | 0.00 | 0.00 | 69 | 1007.7 |
| 20260504010646 | 52 | 190 | 3.0 | 9.0 | 0.00 | 0.00 | 0.00 | 69 | 1007.7 |
| 20260504010544 | 52 | 218 | 3.0 | 9.0 | 0.00 | 0.00 | 0.00 | 69 | 1007.6 |
| 20260504010442 | 52 | 199 | 3.0 | 9.0 | 0.00 | 0.00 | 0.00 | 69 | 1007.6 |
| 20260504010339 | 52 | 210 | 3.0 | 9.0 | 0.00 | 0.00 | 0.00 | 69 | 1007.7 |
| 20260504010237 | 52 | 184 | 3.0 | 9.0 | 0.00 | 0.00 | 0.00 | 69 | 1007.6 |
| 20260504010133 | 52 | 171 | 3.0 | 9.0 | 0.00 | 0.00 | 0.00 | 69 | 1007.6 |
| 20260504010026 | 52 | 0 | 2.0 | 9.0 | 0.00 | 0.00 | 0.00 | 69 | 1007.7 |
| 20260504005656 | 52 | 228 | 3.0 | 7.0 | 0.00 | 0.00 | 0.00 | 69 | 1007.6 |
| 20260504005551 | 52 | 222 | 3.0 | 7.0 | 0.00 | 0.00 | 0.00 | 69 | 1007.7 |
| 20260504005447 | 52 | 165 | 3.0 | 7.0 | 0.00 | 0.00 | 0.00 | 68 | 1007.7 |
| 20260504005341 | 52 | 209 | 2.0 | 7.0 | 0.00 | 0.00 | 0.00 | 68 | 1007.7 |
| 20260504005235 | 52 | 221 | 2.0 | 7.0 | 0.00 | 0.00 | 0.00 | 68 | 1007.7 |
| 20260504004908 | 52 | 186 | 2.0 | 12.0 | 0.00 | 0.00 | 0.00 | 68 | 1007.8 |
| 20260504004805 | 52 | 223 | 2.0 | 12.0 | 0.00 | 0.00 | 0.00 | 68 | 1007.8 |
| 20260504004702 | 53 | 190 | 2.0 | 12.0 | 0.00 | 0.00 | 0.00 | 68 | 1007.8 |
| 20260504004556 | 53 | 199 | 2.0 | 12.0 | 0.00 | 0.00 | 0.00 | 68 | 1007.8 |
| 20260504004450 | 53 | 184 | 2.0 | 12.0 | 0.00 | 0.00 | 0.00 | 67 | 1007.8 |
| 20260504004342 | 53 | 180 | 3.0 | 12.0 | 0.00 | 0.00 | 0.00 | 67 | 1007.8 |
| 20260504003758 | 53 | 200 | 3.0 | 12.0 | 0.00 | 0.00 | 0.00 | 67 | 1007.8 |
| 20260504003216 | 53 | 163 | 3.0 | 12.0 | 0.00 | 0.00 | 0.00 | 66 | 1007.8 |
| 20260504003111 | 53 | 163 | 3.0 | 12.0 | 0.00 | 0.00 | 0.00 | 66 | 1007.9 |
| 20260504003009 | 53 | 173 | 2.0 | 10.0 | 0.00 | 0.00 | 0.00 | 66 | 1007.9 |
| 20260504002903 | 53 | 217 | 2.0 | 8.0 | 0.00 | 0.00 | 0.00 | 66 | 1007.9 |
| 20260504002756 | 53 | 196 | 2.0 | 8.0 | 0.00 | 0.00 | 0.00 | 66 | 1007.9 |
| 20260504002429 | 53 | 204 | 2.0 | 7.0 | 0.00 | 0.00 | 0.00 | 66 | 1007.9 |
| 20260504002326 | 54 | 166 | 2.0 | 7.0 | 0.00 | 0.00 | 0.00 | 66 | 1007.9 |
| 20260504002224 | 54 | 202 | 1.0 | 7.0 | 0.00 | 0.00 | 0.00 | 66 | 1007.9 |
| 20260504002122 | 54 | 177 | 1.0 | 7.0 | 0.00 | 0.00 | 0.00 | 66 | 1008.0 |
| 20260504002019 | 54 | 202 | 1.0 | 7.0 | 0.00 | 0.00 | 0.00 | 66 | 1008.0 |
| 20260504001912 | 54 | 173 | 1.0 | 7.0 | 0.00 | 0.00 | 0.00 | 66 | 1008.0 |
| 20260504001807 | 54 | 153 | 1.0 | 7.0 | 0.00 | 0.00 | 0.00 | 66 | 1008.0 |
| 20260504001703 | 54 | 202 | 1.0 | 7.0 | 0.00 | 0.00 | 0.00 | 65 | 1008.0 |
| 20260504001342 | 54 | 179 | 1.0 | 0.0 | 0.00 | 0.00 | 0.00 | 66 | 1008.0 |
| 20260504001017 | 54 | 179 | 2.0 | 10.0 | 0.00 | 0.00 | 0.00 | 66 | 1008.0 |
| 20260504000913 | 54 | 182 | 1.0 | 10.0 | 0.00 | 0.00 | 0.00 | 65 | 1008.0 |
| 20260504000810 | 54 | 234 | 1.0 | 10.0 | 0.00 | 0.00 | 0.00 | 66 | 1008.0 |
| 20260504000704 | 54 | 205 | 1.0 | 10.0 | 0.00 | 0.00 | 0.00 | 65 | 1008.0 |
| 20260504000336 | 54 | 188 | 2.0 | 10.0 | 0.00 | 0.00 | 0.00 | 65 | 1008.0 |
| 20260504000229 | 54 | 229 | 2.0 | 10.0 | 0.00 | 0.00 | 0.00 | 65 | 1008.0 |
| 20260504000121 | 54 | 223 | 2.0 | 10.0 | 0.00 | 0.00 | 0.00 | 66 | 1008.0 |
| 20260504000014 | 54 | 221 | 2.0 | 10.0 | 0.00 | 0.00 | 0.00 | 65 | 1008.1 |
| 20260503235647 | 54 | 211 | 2.0 | 10.0 | 0.00 | 0.00 | 0.00 | 65 | 1008.1 |
| 20260503235539 | 54 | 239 | 2.0 | 10.0 | 0.00 | 0.00 | 0.00 | 65 | 1008.0 |
| 20260503235432 | 54 | 194 | 2.0 | 9.0 | 0.00 | 0.00 | 0.00 | 65 | 1008.0 |
| 20260503235327 | 54 | 213 | 2.0 | 9.0 | 0.00 | 0.00 | 0.00 | 65 | 1008.0 |
| 20260503235225 | 54 | 189 | 2.0 | 9.0 | 0.00 | 0.00 | 0.00 | 65 | 1008.1 |
| 20260503235119 | 54 | 233 | 2.0 | 9.0 | 0.00 | 0.00 | 0.00 | 65 | 1008.1 |
| 20260503235014 | 54 | 229 | 2.0 | 9.0 | 0.00 | 0.00 | 0.00 | 65 | 1008.2 |
| 20260503234910 | 54 | 200 | 2.0 | 9.0 | 0.00 | 0.00 | 0.00 | 65 | 1008.1 |
| 20260503234806 | 54 | 235 | 3.0 | 9.0 | 0.00 | 0.00 | 0.00 | 65 | 1008.1 |
| 20260503234704 | 54 | 195 | 2.0 | 9.0 | 0.00 | 0.00 | 0.00 | 65 | 1008.2 |
| 20260503234558 | 54 | 223 | 2.0 | 9.0 | 0.00 | 0.00 | 0.00 | 65 | 1008.1 |
| 20260503234452 | 54 | 218 | 2.0 | 8.0 | 0.00 | 0.00 | 0.00 | 65 | 1008.2 |
| 20260503234347 | 54 | 247 | 2.0 | 8.0 | 0.00 | 0.00 | 0.00 | 65 | 1008.2 |
| 20260503234243 | 54 | 219 | 1.0 | 8.0 | 0.00 | 0.00 | 0.00 | 65 | 1008.2 |
| 20260503234137 | 54 | 251 | 2.0 | 8.0 | 0.00 | 0.00 | 0.00 | 65 | 1008.2 |
| 20260503234028 | 54 | 196 | 2.0 | 8.0 | 0.00 | 0.00 | 0.00 | 65 | 1008.2 |
| 20260503233926 | 54 | 199 | 2.0 | 8.0 | 0.00 | 0.00 | 0.00 | 65 | 1008.2 |
| 20260503233818 | 54 | 208 | 2.0 | 8.0 | 0.00 | 0.00 | 0.00 | 65 | 1008.2 |
| 20260503233715 | 54 | 178 | 2.0 | 8.0 | 0.00 | 0.00 | 0.00 | 65 | 1008.2 |
| 20260503233611 | 54 | 257 | 2.0 | 8.0 | 0.00 | 0.00 | 0.00 | 65 | 1008.2 |
| 20260503233023 | 55 | 259 | 3.0 | 9.0 | 0.00 | 0.00 | 0.00 | 64 | 1008.2 |
| 20260503232920 | 55 | 271 | 3.0 | 9.0 | 0.00 | 0.00 | 0.00 | 64 | 1008.3 |
| 20260503232555 | 55 | 255 | 3.0 | 9.0 | 0.00 | 0.00 | 0.00 | 64 | 1008.2 |
| 20260503232450 | 55 | 256 | 3.0 | 9.0 | 0.00 | 0.00 | 0.00 | 64 | 1008.3 |
| 20260503232346 | 55 | 199 | 3.0 | 9.0 | 0.00 | 0.00 | 0.00 | 63 | 1008.3 |
| 20260503232020 | 55 | 224 | 4.0 | 17.0 | 0.00 | 0.00 | 0.00 | 63 | 1008.3 |
| 20260503231701 | 55 | 181 | 4.0 | 17.0 | 0.00 | 0.00 | 0.00 | 62 | 1008.3 |
| 20260503231556 | 55 | 202 | 4.0 | 17.0 | 0.00 | 0.00 | 0.00 | 63 | 1008.4 |
| 20260503231452 | 55 | 248 | 4.0 | 17.0 | 0.00 | 0.00 | 0.00 | 62 | 1008.3 |
| 20260503231348 | 55 | 233 | 4.0 | 17.0 | 0.00 | 0.00 | 0.00 | 62 | 1008.4 |
| 20260503231242 | 55 | 267 | 4.0 | 17.0 | 0.00 | 0.00 | 0.00 | 62 | 1008.4 |
| 20260503231137 | 55 | 205 | 5.0 | 17.0 | 0.00 | 0.00 | 0.00 | 62 | 1008.4 |
| 20260503231031 | 55 | 251 | 5.0 | 17.0 | 0.00 | 0.00 | 0.00 | 62 | 1008.4 |
| 20260503230925 | 55 | 251 | 5.0 | 17.0 | 0.00 | 0.00 | 0.00 | 62 | 1008.4 |
| 20260503230823 | 55 | 223 | 5.0 | 17.0 | 0.00 | 0.00 | 0.00 | 62 | 1008.4 |
| 20260503230716 | 55 | 172 | 5.0 | 17.0 | 0.00 | 0.00 | 0.00 | 62 | 1008.5 |
| 20260503230611 | 55 | 195 | 5.0 | 17.0 | 0.00 | 0.00 | 0.00 | 62 | 1008.5 |
| 20260503230506 | 55 | 275 | 6.0 | 17.0 | 0.00 | 0.00 | 0.00 | 62 | 1008.5 |
| 20260503230143 | 56 | 208 | 6.0 | 17.0 | 0.00 | 0.00 | 0.00 | 62 | 1008.4 |
| 20260503230040 | 56 | 273 | 6.0 | 16.0 | 0.00 | 0.00 | 0.00 | 62 | 1008.6 |
| 20260503225715 | 56 | 173 | 6.0 | 16.0 | 0.00 | 0.00 | 0.00 | 62 | 1008.5 |
| 20260503225608 | 56 | 250 | 6.0 | 16.0 | 0.00 | 0.00 | 0.00 | 61 | 1008.5 |
| 20260503225503 | 56 | 219 | 6.0 | 16.0 | 0.00 | 0.00 | 0.00 | 62 | 1008.6 |
| 20260503225400 | 56 | 258 | 6.0 | 16.0 | 0.00 | 0.00 | 0.00 | 62 | 1009.0 |
| 20260503225257 | 56 | 246 | 6.0 | 16.0 | 0.00 | 0.00 | 0.00 | 62 | 1008.6 |
| 20260503225150 | 56 | 250 | 6.0 | 16.0 | 0.00 | 0.00 | 0.00 | 61 | 1008.7 |
| 20260503224825 | 56 | 185 | 6.0 | 16.0 | 0.00 | 0.00 | 0.00 | 61 | 1008.5 |
| 20260503224718 | 56 | 220 | 6.0 | 16.0 | 0.00 | 0.00 | 0.00 | 61 | 1008.5 |
| 20260503224357 | 57 | 256 | 5.0 | 14.0 | 0.00 | 0.00 | 0.00 | 60 | 1008.6 |
| 20260503224029 | 57 | 224 | 6.0 | 17.0 | 0.00 | 0.00 | 0.00 | 59 | 1008.6 |
| 20260503223922 | 57 | 249 | 6.0 | 17.0 | 0.00 | 0.00 | 0.00 | 59 | 1008.8 |
| 20260503223820 | 57 | 221 | 6.0 | 17.0 | 0.00 | 0.00 | 0.00 | 59 | 1008.7 |
| 20260503223715 | 57 | 188 | 7.0 | 17.0 | 0.00 | 0.00 | 0.00 | 59 | 1008.7 |
| 20260503223609 | 57 | 268 | 7.0 | 17.0 | 0.00 | 0.00 | 0.00 | 59 | 1008.6 |
| 20260503223505 | 57 | 267 | 8.0 | 17.0 | 0.00 | 0.00 | 0.00 | 59 | 1008.5 |
| 20260503223401 | 57 | 209 | 8.0 | 17.0 | 0.00 | 0.00 | 0.00 | 59 | 1008.3 |
| 20260503223255 | 58 | 236 | 8.0 | 17.0 | 0.00 | 0.00 | 0.00 | 59 | 1008.5 |
| 20260503223149 | 58 | 274 | 8.0 | 17.0 | 0.00 | 0.00 | 0.00 | 59 | 1008.4 |
| 20260503223044 | 58 | 229 | 8.0 | 17.0 | 0.00 | 0.00 | 0.00 | 58 | 1008.4 |
| 20260503222938 | 58 | 252 | 8.0 | 17.0 | 0.00 | 0.00 | 0.00 | 58 | 1008.4 |
| 20260503222834 | 58 | 254 | 8.0 | 17.0 | 0.00 | 0.00 | 0.00 | 57 | 1008.4 |
| 20260503222731 | 58 | 200 | 8.0 | 17.0 | 0.00 | 0.00 | 0.00 | 57 | 1008.4 |
| 20260503222626 | 58 | 218 | 8.0 | 17.0 | 0.00 | 0.00 | 0.00 | 57 | 1008.4 |
| 20260503222257 | 59 | 257 | 8.0 | 17.0 | 0.00 | 0.00 | 0.00 | 56 | 1008.3 |
| 20260503221932 | 59 | 259 | 8.0 | 22.0 | 0.00 | 0.00 | 0.00 | 55 | 1008.3 |
| 20260503221825 | 59 | 245 | 7.0 | 22.0 | 0.00 | 0.00 | 0.00 | 55 | 1008.3 |
| 20260503221722 | 59 | 290 | 7.0 | 22.0 | 0.00 | 0.00 | 0.00 | 54 | 1008.2 |
| 20260503220911 | 60 | 259 | 8.0 | 22.0 | 0.00 | 0.00 | 0.00 | 53 | 1008.3 |
| 20260503220804 | 60 | 261 | 8.0 | 22.0 | 0.00 | 0.00 | 0.00 | 53 | 1008.2 |
| 20260503220659 | 60 | 297 | 8.0 | 22.0 | 0.00 | 0.00 | 0.00 | 52 | 1008.2 |
| 20260503220557 | 60 | 268 | 7.0 | 22.0 | 0.00 | 0.00 | 0.00 | 52 | 1008.2 |
| 20260503220450 | 60 | 273 | 7.0 | 22.0 | 0.00 | 0.00 | 0.00 | 52 | 1008.2 |
| 20260503220345 | 60 | 263 | 7.0 | 22.0 | 0.00 | 0.00 | 0.00 | 52 | 1008.2 |
| 20260503220242 | 60 | 254 | 6.0 | 22.0 | 0.00 | 0.00 | 0.00 | 52 | 1008.2 |
| 20260503220139 | 61 | 243 | 6.0 | 22.0 | 0.00 | 0.00 | 0.00 | 51 | 1008.1 |
| 20260503220033 | 61 | 263 | 5.0 | 22.0 | 0.00 | 0.00 | 0.00 | 51 | 1008.1 |
| 20260503215930 | 61 | 248 | 5.0 | 15.0 | 0.00 | 0.00 | 0.00 | 50 | 1008.1 |
| 20260503215823 | 61 | 219 | 5.0 | 15.0 | 0.00 | 0.00 | 0.00 | 51 | 1008.1 |
| 20260503215458 | 61 | 239 | 6.0 | 15.0 | 0.00 | 0.00 | 0.00 | 49 | 1008.1 |
| 20260503215350 | 61 | 250 | 6.0 | 15.0 | 0.00 | 0.00 | 0.00 | 50 | 1008.0 |
| 20260503215247 | 61 | 267 | 6.0 | 15.0 | 0.00 | 0.00 | 0.00 | 51 | 1008.0 |
| 20260503215142 | 60 | 221 | 6.0 | 15.0 | 0.00 | 0.00 | 0.00 | 49 | 1008.1 |
| 20260503215040 | 60 | 246 | 6.0 | 15.0 | 0.00 | 0.00 | 0.00 | 49 | 1008.0 |
| 20260503214937 | 61 | 235 | 6.0 | 15.0 | 0.00 | 0.00 | 0.00 | 50 | 1007.9 |
| 20260503214834 | 61 | 199 | 6.0 | 15.0 | 0.00 | 0.00 | 0.00 | 48 | 1008.0 |
| 20260503214727 | 61 | 298 | 6.0 | 15.0 | 0.00 | 0.00 | 0.00 | 48 | 1008.0 |
| 20260503214141 | 61 | 256 | 6.0 | 19.0 | 0.00 | 0.00 | 0.00 | 49 | 1008.1 |
| 20260503213820 | 61 | 263 | 6.0 | 19.0 | 0.00 | 0.00 | 0.00 | 48 | 1008.0 |
| 20260503213716 | 61 | 190 | 6.0 | 19.0 | 0.00 | 0.00 | 0.00 | 48 | 1008.0 |
| 20260503213611 | 61 | 223 | 7.0 | 19.0 | 0.00 | 0.00 | 0.00 | 47 | 1008.0 |
| 20260503213504 | 61 | 224 | 6.0 | 19.0 | 0.00 | 0.00 | 0.00 | 47 | 1008.0 |
| 20260503213401 | 61 | 175 | 6.0 | 19.0 | 0.00 | 0.00 | 0.00 | 47 | 1008.0 |
| 20260503213259 | 61 | 227 | 6.0 | 19.0 | 0.00 | 0.00 | 0.00 | 48 | 1008.1 |
| 20260503212939 | 61 | 248 | 6.0 | 19.0 | 0.00 | 0.00 | 0.00 | 49 | 1008.0 |
| 20260503212835 | 61 | 227 | 6.0 | 19.0 | 0.00 | 0.00 | 0.00 | 48 | 1007.8 |
| 20260503212732 | 61 | 226 | 6.0 | 19.0 | 0.00 | 0.00 | 0.00 | 47 | 1007.9 |
| 20260503212629 | 61 | 250 | 5.0 | 19.0 | 0.00 | 0.00 | 0.00 | 48 | 1007.9 |
| 20260503212526 | 61 | 175 | 5.0 | 18.0 | 0.00 | 0.00 | 0.00 | 49 | 1008.0 |
| 20260503212419 | 61 | 226 | 5.0 | 18.0 | 0.00 | 0.00 | 0.00 | 47 | 1008.0 |
| 20260503212053 | 61 | 274 | 6.0 | 19.0 | 0.00 | 0.00 | 0.00 | 48 | 1008.1 |
| 20260503211948 | 61 | 293 | 6.0 | 19.0 | 0.00 | 0.00 | 0.00 | 48 | 1008.1 |
| 20260503211845 | 61 | 274 | 6.0 | 19.0 | 0.00 | 0.00 | 0.00 | 48 | 1008.1 |
| 20260503211741 | 61 | 223 | 7.0 | 19.0 | 0.00 | 0.00 | 0.00 | 48 | 1008.0 |
| 20260503211635 | 61 | 192 | 7.0 | 19.0 | 0.00 | 0.00 | 0.00 | 47 | 1008.1 |
| 20260503211532 | 61 | 238 | 7.0 | 19.0 | 0.00 | 0.00 | 0.00 | 48 | 1008.0 |
| 20260503211426 | 61 | 222 | 7.0 | 19.0 | 0.00 | 0.00 | 0.00 | 48 | 1008.1 |
| 20260503211323 | 61 | 236 | 7.0 | 19.0 | 0.00 | 0.00 | 0.00 | 49 | 1008.1 |
| 20260503211219 | 61 | 259 | 7.0 | 19.0 | 0.00 | 0.00 | 0.00 | 49 | 1008.1 |
| 20260503211116 | 61 | 279 | 7.0 | 19.0 | 0.00 | 0.00 | 0.00 | 47 | 1008.1 |
| 20260503211011 | 61 | 248 | 7.0 | 19.0 | 0.00 | 0.00 | 0.00 | 47 | 1008.0 |
| 20260503210909 | 61 | 262 | 7.0 | 19.0 | 0.00 | 0.00 | 0.00 | 47 | 1008.0 |
| 20260503210801 | 61 | 185 | 6.0 | 19.0 | 0.00 | 0.00 | 0.00 | 47 | 1008.2 |
| 20260503210658 | 61 | 219 | 6.0 | 19.0 | 0.00 | 0.00 | 0.00 | 47 | 1008.1 |
| 20260503210551 | 61 | 235 | 6.0 | 19.0 | 0.00 | 0.00 | 0.00 | 47 | 1008.0 |
| 20260503210444 | 61 | 234 | 6.0 | 19.0 | 0.00 | 0.00 | 0.00 | 47 | 1008.1 |
| 20260503210341 | 61 | 177 | 6.0 | 19.0 | 0.00 | 0.00 | 0.00 | 47 | 1008.1 |
| 20260503210238 | 61 | 264 | 5.0 | 19.0 | 0.00 | 0.00 | 0.00 | 47 | 1008.1 |
| 20260503210133 | 61 | 249 | 5.0 | 19.0 | 0.00 | 0.00 | 0.00 | 46 | 1008.1 |
| 20260503210032 | 61 | 263 | 5.0 | 18.0 | 0.00 | 0.00 | 0.00 | 47 | 1008.2 |
| 20260503205929 | 61 | 208 | 5.0 | 18.0 | 0.00 | 0.00 | 0.00 | 47 | 1008.2 |
| 20260503205823 | 61 | 285 | 5.0 | 18.0 | 0.00 | 0.00 | 0.00 | 46 | 1008.2 |
| 20260503205720 | 61 | 245 | 5.0 | 18.0 | 0.00 | 0.00 | 0.00 | 47 | 1008.2 |
| 20260503205618 | 61 | 221 | 6.0 | 18.0 | 0.00 | 0.00 | 0.00 | 46 | 1008.3 |
| 20260503205513 | 61 | 236 | 6.0 | 18.0 | 0.00 | 0.00 | 0.00 | 47 | 1008.2 |
| 20260503205410 | 61 | 238 | 6.0 | 18.0 | 0.00 | 0.00 | 0.00 | 46 | 1008.3 |
| 20260503205304 | 61 | 207 | 6.0 | 18.0 | 0.00 | 0.00 | 0.00 | 48 | 1008.2 |
| 20260503205200 | 62 | 163 | 6.0 | 18.0 | 0.00 | 0.00 | 0.00 | 47 | 1008.3 |
| 20260503205052 | 62 | 229 | 6.0 | 18.0 | 0.00 | 0.00 | 0.00 | 45 | 1008.2 |
| 20260503204728 | 62 | 158 | 6.0 | 18.0 | 0.00 | 0.00 | 0.00 | 45 | 1008.3 |
| 20260503204626 | 62 | 215 | 6.0 | 18.0 | 0.00 | 0.00 | 0.00 | 45 | 1008.3 |
| 20260503204517 | 62 | 261 | 5.0 | 18.0 | 0.00 | 0.00 | 0.00 | 46 | 1008.2 |
| 20260503204415 | 62 | 249 | 5.0 | 18.0 | 0.00 | 0.00 | 0.00 | 45 | 1008.3 |
| 20260503204055 | 62 | 236 | 5.0 | 14.0 | 0.00 | 0.00 | 0.00 | 45 | 1008.2 |
| 20260503203949 | 62 | 234 | 5.0 | 13.0 | 0.00 | 0.00 | 0.00 | 45 | 1008.3 |
| 20260503203844 | 62 | 234 | 5.0 | 13.0 | 0.00 | 0.00 | 0.00 | 45 | 1008.2 |
| 20260503203739 | 62 | 252 | 5.0 | 13.0 | 0.00 | 0.00 | 0.00 | 46 | 1008.3 |
| 20260503203156 | 62 | 224 | 7.0 | 19.0 | 0.00 | 0.00 | 0.00 | 43 | 1008.3 |
| 20260503203050 | 62 | 252 | 7.0 | 19.0 | 0.00 | 0.00 | 0.00 | 44 | 1008.4 |
| 20260503202945 | 63 | 250 | 7.0 | 19.0 | 0.00 | 0.00 | 0.00 | 44 | 1008.4 |
| 20260503202840 | 63 | 223 | 8.0 | 19.0 | 0.00 | 0.00 | 0.00 | 45 | 1008.4 |
| 20260503202735 | 63 | 289 | 7.0 | 19.0 | 0.00 | 0.00 | 0.00 | 44 | 1008.4 |
| 20260503202633 | 63 | 269 | 7.0 | 20.0 | 0.00 | 0.00 | 0.00 | 46 | 1008.4 |
| 20260503202525 | 63 | 288 | 7.0 | 20.0 | 0.00 | 0.00 | 0.00 | 47 | 1008.4 |
| 20260503202422 | 63 | 193 | 7.0 | 20.0 | 0.00 | 0.00 | 0.00 | 47 | 1008.3 |
| 20260503202317 | 63 | 252 | 7.0 | 20.0 | 0.00 | 0.00 | 0.00 | 45 | 1008.4 |
| 20260503202214 | 63 | 160 | 8.0 | 20.0 | 0.00 | 0.00 | 0.00 | 45 | 1008.4 |
| 20260503202108 | 63 | 259 | 8.0 | 20.0 | 0.00 | 0.00 | 0.00 | 45 | 1008.3 |
| 20260503202004 | 63 | 278 | 7.0 | 20.0 | 0.00 | 0.00 | 0.00 | 46 | 1008.4 |
| 20260503201900 | 63 | 305 | 7.0 | 20.0 | 0.00 | 0.00 | 0.00 | 44 | 1008.5 |
| 20260503201754 | 63 | 281 | 7.0 | 20.0 | 0.00 | 0.00 | 0.00 | 45 | 1008.5 |
| 20260503201650 | 63 | 168 | 7.0 | 20.0 | 0.00 | 0.00 | 0.00 | 43 | 1008.5 |
| 20260503201547 | 63 | 251 | 7.0 | 20.0 | 0.00 | 0.00 | 0.00 | 44 | 1008.5 |
| 20260503201442 | 63 | 246 | 8.0 | 20.0 | 0.00 | 0.00 | 0.00 | 44 | 1008.5 |
| 20260503201336 | 63 | 217 | 8.0 | 20.0 | 0.00 | 0.00 | 0.00 | 42 | 1008.5 |
| 20260503201233 | 63 | 266 | 7.0 | 20.0 | 0.00 | 0.00 | 0.00 | 44 | 1008.5 |
| 20260503201128 | 63 | 221 | 7.0 | 20.0 | 0.00 | 0.00 | 0.00 | 45 | 1008.6 |
| 20260503201023 | 63 | 261 | 6.0 | 20.0 | 0.00 | 0.00 | 0.00 | 45 | 1008.5 |
| 20260503200700 | 63 | 248 | 6.0 | 20.0 | 0.00 | 0.00 | 0.00 | 45 | 1008.5 |
| 20260503200337 | 63 | 223 | 6.0 | 16.0 | 0.00 | 0.00 | 0.00 | 45 | 1008.6 |
| 20260503200230 | 63 | 174 | 6.0 | 16.0 | 0.00 | 0.00 | 0.00 | 46 | 1008.6 |
| 20260503195906 | 63 | 258 | 6.0 | 20.0 | 0.00 | 0.00 | 0.00 | 44 | 1008.5 |
| 20260503195803 | 63 | 250 | 7.0 | 20.0 | 0.00 | 0.00 | 0.00 | 44 | 1008.6 |
| 20260503195657 | 63 | 218 | 7.0 | 20.0 | 0.00 | 0.00 | 0.00 | 46 | 1008.7 |
| 20260503195550 | 62 | 283 | 7.0 | 20.0 | 0.00 | 0.00 | 0.00 | 45 | 1008.6 |
| 20260503195444 | 62 | 278 | 7.0 | 20.0 | 0.00 | 0.00 | 0.00 | 48 | 1008.5 |
| 20260503195121 | 62 | 276 | 7.0 | 20.0 | 0.00 | 0.00 | 0.00 | 45 | 1008.7 |
| 20260503195014 | 62 | 245 | 7.0 | 20.0 | 0.00 | 0.00 | 0.00 | 44 | 1008.6 |
| 20260503194912 | 62 | 269 | 7.0 | 20.0 | 0.00 | 0.00 | 0.00 | 45 | 1008.7 |
| 20260503194546 | 62 | 250 | 5.0 | 20.0 | 0.00 | 0.00 | 0.00 | 46 | 1008.8 |
| 20260503194443 | 62 | 181 | 5.0 | 20.0 | 0.00 | 0.00 | 0.00 | 46 | 1008.8 |
| 20260503194335 | 62 | 206 | 6.0 | 20.0 | 0.00 | 0.00 | 0.00 | 45 | 1008.8 |
| 20260503194230 | 62 | 266 | 5.0 | 20.0 | 0.00 | 0.00 | 0.00 | 44 | 1008.7 |
| 20260503194127 | 62 | 182 | 5.0 | 20.0 | 0.00 | 0.00 | 0.00 | 44 | 1008.8 |
| 20260503194024 | 62 | 236 | 5.0 | 19.0 | 0.00 | 0.00 | 0.00 | 44 | 1008.8 |
| 20260503193922 | 63 | 265 | 5.0 | 17.0 | 0.00 | 0.00 | 0.00 | 45 | 1008.8 |
| 20260503193815 | 63 | 271 | 5.0 | 17.0 | 0.00 | 0.00 | 0.00 | 46 | 1008.9 |
| 20260503193713 | 63 | 267 | 5.0 | 17.0 | 0.00 | 0.00 | 0.00 | 44 | 1008.9 |
| 20260503193608 | 63 | 235 | 5.0 | 17.0 | 0.00 | 0.00 | 0.00 | 46 | 1008.9 |
| 20260503193502 | 63 | 244 | 5.0 | 17.0 | 0.00 | 0.00 | 0.00 | 46 | 1008.9 |
| 20260503193400 | 63 | 212 | 5.0 | 17.0 | 0.00 | 0.00 | 0.00 | 46 | 1009.0 |
| 20260503193258 | 63 | 240 | 5.0 | 17.0 | 0.00 | 0.00 | 0.00 | 48 | 1009.0 |
| 20260503192937 | 63 | 246 | 5.0 | 20.0 | 0.00 | 0.00 | 0.00 | 44 | 1009.0 |
| 20260503192833 | 63 | 234 | 5.0 | 20.0 | 0.00 | 0.00 | 0.00 | 46 | 1009.1 |
| 20260503192727 | 63 | 226 | 6.0 | 20.0 | 0.00 | 0.00 | 0.00 | 47 | 1009.1 |
| 20260503192624 | 63 | 251 | 6.0 | 20.0 | 0.00 | 0.00 | 0.00 | 45 | 1009.0 |
| 20260503192519 | 63 | 263 | 7.0 | 20.0 | 0.00 | 0.00 | 0.00 | 44 | 1009.1 |
| 20260503192155 | 63 | 155 | 7.0 | 20.0 | 0.00 | 0.00 | 0.00 | 47 | 1009.3 |
| 20260503192052 | 63 | 287 | 8.0 | 20.0 | 0.00 | 0.00 | 0.00 | 44 | 1009.2 |
| 20260503191946 | 63 | 269 | 8.0 | 20.0 | 0.00 | 0.00 | 0.00 | 44 | 1009.2 |
| 20260503191627 | 63 | 285 | 7.0 | 20.0 | 0.00 | 0.00 | 0.00 | 46 | 1009.3 |
| 20260503191519 | 63 | 260 | 7.0 | 20.0 | 0.00 | 0.00 | 0.00 | 44 | 1009.3 |
| 20260503191412 | 62 | 215 | 7.0 | 20.0 | 0.00 | 0.00 | 0.00 | 45 | 1009.2 |
| 20260503191309 | 62 | 189 | 7.0 | 20.0 | 0.00 | 0.00 | 0.00 | 45 | 1009.3 |
| 20260503190944 | 62 | 214 | 7.0 | 15.0 | 0.00 | 0.00 | 0.00 | 44 | 1009.3 |
| 20260503190619 | 62 | 254 | 7.0 | 15.0 | 0.00 | 0.00 | 0.00 | 45 | 1009.4 |
| 20260503190513 | 62 | 258 | 7.0 | 15.0 | 0.00 | 0.00 | 0.00 | 48 | 1009.4 |
| 20260503190408 | 61 | 256 | 6.0 | 15.0 | 0.00 | 0.00 | 0.00 | 47 | 1009.4 |
| 20260503190302 | 61 | 221 | 6.0 | 15.0 | 0.00 | 0.00 | 0.00 | 44 | 1009.4 |
| 20260503190159 | 61 | 175 | 6.0 | 15.0 | 0.00 | 0.00 | 0.00 | 44 | 1009.4 |
| 20260503190057 | 61 | 270 | 6.0 | 15.0 | 0.00 | 0.00 | 0.00 | 45 | 1009.5 |
| 20260503185952 | 61 | 200 | 5.0 | 15.0 | 0.00 | 0.00 | 0.00 | 46 | 1009.4 |
| 20260503185848 | 62 | 228 | 5.0 | 18.0 | 0.00 | 0.00 | 0.00 | 44 | 1009.4 |
| 20260503185746 | 62 | 277 | 5.0 | 18.0 | 0.00 | 0.00 | 0.00 | 45 | 1009.5 |
| 20260503185639 | 62 | 265 | 4.0 | 18.0 | 0.00 | 0.00 | 0.00 | 45 | 1009.4 |
| 20260503185535 | 62 | 238 | 4.0 | 18.0 | 0.00 | 0.00 | 0.00 | 46 | 1009.5 |
| 20260503185208 | 62 | 261 | 4.0 | 18.0 | 0.00 | 0.00 | 0.00 | 50 | 1009.5 |
| 20260503185105 | 62 | 247 | 5.0 | 18.0 | 0.00 | 0.00 | 0.00 | 47 | 1009.5 |
| 20260503184959 | 62 | 197 | 6.0 | 18.0 | 0.00 | 0.00 | 0.00 | 45 | 1009.5 |
| 20260503184856 | 62 | 191 | 6.0 | 18.0 | 0.00 | 0.00 | 0.00 | 44 | 1009.5 |
| 20260503184750 | 62 | 203 | 5.0 | 18.0 | 0.00 | 0.00 | 0.00 | 47 | 1009.5 |
| 20260503184645 | 63 | 140 | 5.0 | 18.0 | 0.00 | 0.00 | 0.00 | 47 | 1009.5 |
| 20260503184538 | 62 | 218 | 5.0 | 18.0 | 0.00 | 0.00 | 0.00 | 47 | 1009.6 |
| 20260503184433 | 62 | 246 | 5.0 | 18.0 | 0.00 | 0.00 | 0.00 | 45 | 1009.5 |
| 20260503184327 | 63 | 190 | 5.0 | 18.0 | 0.00 | 0.00 | 0.00 | 45 | 1009.6 |
| 20260503184224 | 63 | 226 | 5.0 | 18.0 | 0.00 | 0.00 | 0.00 | 46 | 1009.6 |
| 20260503184117 | 63 | 259 | 5.0 | 18.0 | 0.00 | 0.00 | 0.00 | 45 | 1009.4 |
| 20260503184010 | 63 | 278 | 5.0 | 18.0 | 0.00 | 0.00 | 0.00 | 45 | 1009.5 |
| 20260503183906 | 63 | 205 | 4.0 | 17.0 | 0.00 | 0.00 | 0.00 | 47 | 1009.6 |
| 20260503183759 | 62 | 257 | 5.0 | 17.0 | 0.00 | 0.00 | 0.00 | 47 | 1009.6 |
| 20260503183655 | 62 | 215 | 5.0 | 17.0 | 0.00 | 0.00 | 0.00 | 48 | 1009.6 |
| 20260503183552 | 62 | 222 | 6.0 | 17.0 | 0.00 | 0.00 | 0.00 | 46 | 1009.6 |
| 20260503183449 | 62 | 208 | 6.0 | 17.0 | 0.00 | 0.00 | 0.00 | 46 | 1009.6 |
| 20260503183346 | 62 | 237 | 6.0 | 17.0 | 0.00 | 0.00 | 0.00 | 46 | 1009.6 |
| 20260503183240 | 62 | 240 | 6.0 | 17.0 | 0.00 | 0.00 | 0.00 | 47 | 1009.8 |
| 20260503183132 | 62 | 231 | 6.0 | 17.0 | 0.00 | 0.00 | 0.00 | 45 | 1009.7 |
| 20260503183029 | 62 | 194 | 6.0 | 17.0 | 0.00 | 0.00 | 0.00 | 46 | 1009.8 |
| 20260503182924 | 62 | 193 | 6.0 | 17.0 | 0.00 | 0.00 | 0.00 | 44 | 1009.7 |
| 20260503182822 | 62 | 186 | 7.0 | 17.0 | 0.00 | 0.00 | 0.00 | 45 | 1009.7 |
| 20260503182716 | 62 | 288 | 7.0 | 17.0 | 0.00 | 0.00 | 0.00 | 44 | 1009.8 |
| 20260503182609 | 62 | 271 | 6.0 | 17.0 | 0.00 | 0.00 | 0.00 | 45 | 1009.9 |
| 20260503182507 | 62 | 283 | 6.0 | 17.0 | 0.00 | 0.00 | 0.00 | 44 | 1009.9 |
| 20260503182400 | 61 | 279 | 5.0 | 16.0 | 0.00 | 0.00 | 0.00 | 45 | 1009.9 |
| 20260503182257 | 61 | 259 | 6.0 | 16.0 | 0.00 | 0.00 | 0.00 | 47 | 1010.0 |
| 20260503182154 | 62 | 195 | 5.0 | 16.0 | 0.00 | 0.00 | 0.00 | 45 | 1010.0 |
| 20260503182048 | 62 | 242 | 5.0 | 16.0 | 0.00 | 0.00 | 0.00 | 44 | 1010.0 |
| 20260503181725 | 62 | 233 | 5.0 | 14.0 | 0.00 | 0.00 | 0.00 | 48 | 1010.0 |
| 20260503181620 | 62 | 207 | 5.0 | 14.0 | 0.00 | 0.00 | 0.00 | 44 | 1010.1 |
| 20260503181517 | 62 | 257 | 5.0 | 14.0 | 0.00 | 0.00 | 0.00 | 46 | 1010.0 |
| 20260503181157 | 62 | 251 | 5.0 | 14.0 | 0.00 | 0.00 | 0.00 | 47 | 1010.0 |
| 20260503181053 | 62 | 259 | 6.0 | 14.0 | 0.00 | 0.00 | 0.00 | 49 | 1010.1 |
| 20260503180730 | 62 | 175 | 5.0 | 14.0 | 0.00 | 0.00 | 0.00 | 47 | 1010.1 |
| 20260503180626 | 62 | 227 | 6.0 | 14.0 | 0.00 | 0.00 | 0.00 | 48 | 1010.2 |
| 20260503180518 | 62 | 198 | 6.0 | 19.0 | 0.00 | 0.00 | 0.00 | 46 | 1010.2 |
| 20260503180413 | 62 | 245 | 6.0 | 19.0 | 0.00 | 0.00 | 0.00 | 49 | 1010.2 |
| 20260503180307 | 62 | 178 | 6.0 | 19.0 | 0.00 | 0.00 | 0.00 | 46 | 1010.3 |
| 20260503180201 | 62 | 252 | 6.0 | 19.0 | 0.00 | 0.00 | 0.00 | 45 | 1010.2 |
| 20260503175840 | 61 | 217 | 6.0 | 19.0 | 0.00 | 0.00 | 0.00 | 46 | 1010.3 |
| 20260503175733 | 61 | 233 | 7.0 | 19.0 | 0.00 | 0.00 | 0.00 | 45 | 1010.4 |
| 20260503175403 | 61 | 239 | 7.0 | 19.0 | 0.00 | 0.00 | 0.00 | 44 | 1010.3 |
| 20260503175258 | 61 | 252 | 7.0 | 19.0 | 0.00 | 0.00 | 0.00 | 47 | 1010.4 |
| 20260503175155 | 61 | 273 | 8.0 | 19.0 | 0.00 | 0.00 | 0.00 | 46 | 1010.4 |
| 20260503175053 | 61 | 281 | 8.0 | 19.0 | 0.00 | 0.00 | 0.00 | 46 | 1010.5 |
| 20260503174950 | 61 | 263 | 8.0 | 19.0 | 0.00 | 0.00 | 0.00 | 45 | 1010.5 |
| 20260503174845 | 61 | 0 | 8.0 | 19.0 | 0.00 | 0.00 | 0.00 | 47 | 1010.5 |
| 20260503174739 | 61 | 230 | 8.0 | 19.0 | 0.00 | 0.00 | 0.00 | 46 | 1010.5 |
| 20260503174637 | 61 | 232 | 8.0 | 19.0 | 0.00 | 0.00 | 0.00 | 44 | 1010.5 |